createdAt,value
2024-05-09T00:00:35.573Z,54.06
2024-05-09T00:03:08.234Z,53.73
2024-05-09T00:05:36.291Z,53.71
2024-05-09T00:08:03.577Z,53.64
2024-05-09T00:10:36.268Z,53.52
2024-05-09T00:13:06.071Z,53.55
2024-05-09T00:15:33.816Z,53.99
2024-05-09T00:18:00.932Z,54.01
2024-05-09T00:20:36.000Z,53.77
2024-05-09T00:23:07.474Z,53.83
2024-05-09T00:25:34.556Z,54.32
2024-05-09T00:28:01.084Z,54.00
2024-05-09T00:30:33.766Z,54.27
2024-05-09T00:33:03.104Z,54.80
2024-05-09T00:35:30.253Z,55.19
2024-05-09T00:37:56.866Z,55.46
2024-05-09T00:40:31.160Z,55.65
2024-05-09T00:43:08.059Z,55.92
2024-05-09T00:45:35.201Z,56.57
2024-05-09T00:48:08.405Z,56.16
2024-05-09T00:50:38.611Z,56.53
2024-05-09T00:53:07.161Z,56.25
2024-05-09T00:55:38.987Z,55.92
2024-05-09T00:58:07.595Z,55.87
2024-05-09T01:00:39.111Z,56.68
2024-05-09T01:03:12.487Z,56.94
2024-05-09T01:10:17.405Z,56.87
2024-05-09T01:12:51.138Z,56.91
2024-05-09T01:15:17.677Z,56.97
2024-05-09T01:17:44.627Z,56.76
2024-05-09T01:20:19.730Z,56.90
2024-05-09T01:22:51.053Z,56.94
2024-05-09T01:25:17.760Z,56.79
2024-05-09T01:27:44.338Z,56.60
2024-05-09T01:30:17.037Z,56.95
2024-05-09T01:32:47.584Z,57.31
2024-05-09T01:35:14.272Z,58.00
2024-05-09T01:37:41.211Z,57.85
2024-05-09T01:40:12.291Z,58.54
2024-05-09T01:42:41.843Z,58.55
2024-05-09T01:45:09.194Z,58.22
2024-05-09T01:47:36.109Z,58.73
2024-05-09T01:50:05.071Z,58.63
2024-05-09T01:52:38.486Z,58.80
2024-05-09T01:55:07.053Z,58.64
2024-05-09T01:57:35.025Z,59.03
2024-05-09T02:00:01.539Z,58.78
2024-05-09T02:02:28.113Z,58.68
2024-05-09T02:04:54.684Z,58.69
2024-05-09T02:07:21.400Z,58.65
2024-05-09T02:09:51.188Z,58.70
2024-05-09T02:12:18.192Z,59.17
2024-05-09T02:14:44.774Z,59.03
2024-05-09T02:17:11.347Z,59.03
2024-05-09T02:19:38.018Z,59.42
2024-05-09T02:22:04.675Z,59.32
2024-05-09T02:24:31.182Z,59.48
2024-05-09T02:26:57.690Z,59.33
2024-05-09T02:29:24.261Z,59.75
2024-05-09T02:31:50.876Z,59.98
2024-05-09T02:34:17.481Z,59.86
2024-05-09T02:36:44.071Z,60.26
2024-05-09T02:39:10.579Z,60.24
2024-05-09T02:41:38.004Z,60.00
2024-05-09T02:44:04.701Z,60.03
2024-05-09T02:46:31.254Z,59.98
2024-05-09T02:48:57.913Z,60.25
2024-05-09T02:51:24.546Z,60.37
2024-05-09T02:53:51.450Z,60.35
2024-05-09T02:56:17.982Z,60.92
2024-05-09T02:58:44.525Z,61.19
2024-05-09T03:01:11.072Z,60.76
2024-05-09T03:03:37.844Z,61.27
2024-05-09T03:06:05.146Z,61.06
2024-05-09T03:08:32.242Z,60.93
2024-05-09T03:10:58.910Z,61.08
2024-05-09T03:13:25.448Z,60.83
2024-05-09T03:15:51.956Z,61.00
2024-05-09T03:18:18.557Z,60.97
2024-05-09T03:20:45.220Z,61.34
2024-05-09T03:23:11.791Z,61.25
2024-05-09T03:25:38.939Z,61.19
2024-05-09T03:28:05.983Z,61.46
2024-05-09T03:30:40.021Z,61.67
2024-05-09T03:33:15.435Z,61.61
2024-05-09T03:35:46.349Z,61.72
2024-05-09T03:38:13.576Z,61.88
2024-05-09T03:40:47.262Z,61.92
2024-05-09T03:43:14.516Z,62.07
2024-05-09T03:45:42.702Z,62.11
2024-05-09T03:48:09.415Z,62.78
2024-05-09T03:50:37.315Z,62.98
2024-05-09T03:53:04.714Z,63.18
2024-05-09T03:55:31.471Z,63.42
2024-05-09T03:57:58.243Z,63.05
2024-05-09T04:00:31.500Z,62.94
2024-05-09T04:03:10.242Z,63.05
2024-05-09T04:05:44.190Z,63.19
2024-05-09T04:08:11.633Z,62.72
2024-05-09T04:10:38.362Z,62.52
2024-05-09T04:13:05.137Z,62.34
2024-05-09T04:15:32.301Z,62.31
2024-05-09T04:17:59.325Z,62.25
2024-05-09T04:22:56.481Z,61.84
2024-05-09T04:25:23.001Z,61.91
2024-05-09T04:27:49.540Z,61.62
2024-05-09T04:30:25.401Z,61.33
2024-05-09T04:32:57.663Z,61.11
2024-05-09T04:35:24.457Z,61.31
2024-05-09T04:37:51.114Z,60.80
2024-05-09T04:40:24.418Z,61.11
2024-05-09T04:42:58.349Z,61.13
2024-05-09T04:45:24.963Z,60.95
2024-05-09T04:47:51.808Z,60.46
2024-05-09T04:50:28.912Z,60.77
2024-05-09T04:53:00.583Z,60.30
2024-05-09T04:55:27.131Z,60.41
2024-05-09T04:57:53.653Z,59.90
2024-05-09T05:00:28.486Z,59.99
2024-05-09T05:03:05.697Z,59.58
2024-05-09T05:05:32.595Z,59.21
2024-05-09T05:07:59.784Z,59.79
2024-05-09T05:10:33.754Z,59.50
2024-05-09T05:13:17.192Z,59.56
2024-05-09T05:15:45.143Z,59.66
2024-05-09T05:18:11.990Z,59.65
2024-05-09T05:20:38.696Z,59.75
2024-05-09T05:23:08.633Z,60.40
2024-05-09T05:25:35.207Z,59.86
2024-05-09T05:28:01.703Z,60.34
2024-05-09T05:30:32.920Z,60.15
2024-05-09T05:33:01.487Z,59.97
2024-05-09T05:35:28.345Z,60.25
2024-05-09T05:37:55.009Z,60.75
2024-05-09T05:40:28.621Z,60.23
2024-05-09T05:43:03.236Z,60.06
2024-05-09T05:45:29.822Z,59.95
2024-05-09T05:47:56.752Z,59.42
2024-05-09T05:50:28.093Z,59.75
2024-05-09T05:53:01.971Z,59.60
2024-05-09T05:55:28.545Z,58.91
2024-05-09T05:57:55.039Z,58.89
2024-05-09T06:00:29.410Z,58.97
2024-05-09T06:03:02.317Z,58.39
2024-05-09T06:05:29.158Z,58.90
2024-05-09T06:07:55.817Z,58.72
2024-05-09T06:10:26.322Z,58.35
2024-05-09T06:13:01.346Z,58.50
2024-05-09T06:15:27.867Z,58.30
2024-05-09T06:17:54.642Z,57.72
2024-05-09T06:20:31.238Z,58.34
2024-05-09T06:23:03.189Z,57.39
2024-05-09T06:25:29.913Z,57.40
2024-05-09T06:27:56.466Z,57.48
2024-05-09T06:30:30.915Z,56.93
2024-05-09T06:33:05.166Z,56.12
2024-05-09T06:35:32.638Z,55.97
2024-05-09T06:37:59.442Z,55.66
2024-05-09T06:40:34.443Z,55.36
2024-05-09T06:43:04.849Z,54.67
2024-05-09T06:45:31.393Z,54.22
2024-05-09T06:47:58.142Z,53.97
2024-05-09T06:50:28.303Z,53.66
2024-05-09T06:52:58.386Z,52.82
2024-05-09T06:55:24.969Z,51.90
2024-05-09T06:57:51.504Z,51.18
2024-05-09T07:00:26.870Z,50.51
2024-05-09T07:02:59.004Z,50.15
2024-05-09T07:05:29.559Z,48.53
2024-05-09T07:07:56.186Z,47.81
2024-05-09T07:10:28.910Z,47.26
2024-05-09T07:13:00.542Z,46.16
2024-05-09T07:15:27.085Z,46.12
2024-05-09T07:17:53.815Z,44.94
2024-05-09T07:20:31.647Z,43.98
2024-05-09T07:23:03.230Z,43.12
2024-05-09T07:25:30.331Z,41.67
2024-05-09T07:27:57.038Z,40.68
2024-05-09T07:30:32.512Z,39.45
2024-05-09T07:33:01.333Z,38.19
2024-05-09T07:35:28.943Z,37.39
2024-05-09T07:37:55.656Z,36.05
2024-05-09T07:40:32.315Z,35.19
2024-05-09T07:43:07.240Z,34.94
2024-05-09T07:52:23.332Z,34.06
2024-05-09T07:53:38.724Z,32.53
2024-05-09T07:56:09.100Z,33.65
2024-05-09T07:58:36.936Z,33.55
2024-05-09T08:01:03.874Z,33.77
2024-05-09T08:03:31.566Z,33.50
2024-05-09T08:05:58.192Z,32.38
2024-05-09T08:08:24.752Z,33.61
2024-05-09T08:10:51.405Z,33.56
2024-05-09T08:13:17.985Z,33.96
2024-05-09T08:15:44.803Z,32.65
2024-05-09T08:18:11.671Z,31.78
2024-05-09T08:20:39.282Z,31.66
2024-05-09T08:23:06.106Z,32.88
2024-05-09T08:25:32.956Z,31.02
2024-05-09T08:27:59.588Z,29.82
2024-05-09T08:30:33.388Z,29.17
2024-05-09T08:33:04.503Z,28.39
2024-05-09T08:35:32.254Z,28.27
2024-05-09T08:37:59.289Z,27.13
2024-05-09T08:40:33.410Z,28.36
2024-05-09T08:43:06.389Z,26.80
2024-05-09T08:45:35.419Z,26.00
2024-05-09T08:48:07.667Z,25.63
2024-05-09T08:50:39.140Z,25.74
2024-05-09T08:53:08.064Z,26.63
2024-05-09T08:55:37.392Z,25.97
2024-05-09T08:58:07.524Z,30.74
2024-05-09T09:00:37.429Z,26.35
2024-05-09T09:03:06.773Z,26.59
2024-05-09T09:05:38.290Z,28.01
2024-05-09T09:08:07.646Z,28.13
2024-05-09T09:10:35.183Z,25.87
2024-05-09T09:13:04.226Z,26.34
2024-05-09T09:15:31.117Z,23.30
2024-05-09T09:17:59.186Z,23.77
2024-05-09T09:20:36.021Z,22.62
2024-05-09T09:23:04.325Z,21.96
2024-05-09T09:25:31.302Z,21.28
2024-05-09T09:27:58.739Z,20.72
2024-05-09T09:30:35.121Z,19.53
2024-05-09T09:33:04.871Z,21.06
2024-05-09T09:35:31.629Z,20.53
2024-05-09T09:38:02.033Z,20.09
2024-05-09T09:40:40.862Z,19.76
2024-05-09T09:43:17.662Z,21.24
2024-05-09T09:45:46.378Z,21.18
2024-05-09T09:48:14.768Z,19.69
2024-05-09T09:50:42.183Z,20.23
2024-05-09T09:53:09.914Z,22.20
2024-05-09T09:55:37.662Z,24.11
2024-05-09T09:58:05.938Z,22.79
2024-05-09T10:00:34.255Z,21.29
2024-05-09T10:03:01.941Z,21.34
2024-05-09T10:05:30.020Z,20.45
2024-05-09T10:07:58.524Z,19.40
2024-05-09T10:10:32.184Z,19.04
2024-05-09T10:13:07.122Z,19.60
2024-05-09T10:16:10.578Z,21.13
2024-05-09T10:18:38.715Z,19.01
2024-05-09T10:21:21.544Z,19.81
2024-05-09T10:23:59.734Z,20.57
2024-05-09T10:26:37.391Z,20.01
2024-05-09T10:29:16.509Z,19.64
2024-05-09T10:31:44.583Z,20.16
2024-05-09T10:34:23.944Z,20.00
2024-05-09T10:36:54.526Z,18.14
2024-05-09T10:39:21.777Z,19.47
2024-05-09T10:41:49.575Z,19.77
2024-05-09T10:44:17.015Z,19.53
2024-05-09T10:46:45.113Z,19.75
2024-05-09T10:49:14.954Z,20.20
2024-05-09T10:51:44.526Z,18.11
2024-05-09T10:54:11.364Z,18.85
2024-05-09T10:56:37.861Z,20.27
2024-05-09T10:59:04.909Z,21.45
2024-05-09T11:01:31.743Z,22.05
2024-05-09T11:03:58.621Z,23.51
2024-05-09T11:06:25.943Z,22.60
2024-05-09T11:08:52.822Z,23.54
2024-05-09T11:11:19.942Z,22.54
2024-05-09T11:13:46.499Z,23.55
2024-05-09T11:16:19.707Z,23.59
2024-05-09T11:18:57.480Z,23.60
2024-05-09T11:21:24.639Z,25.02
2024-05-09T11:23:51.682Z,23.65
2024-05-09T11:26:19.546Z,23.66
2024-05-09T11:28:46.482Z,23.41
2024-05-09T11:31:13.105Z,23.11
2024-05-09T11:33:42.239Z,21.88
2024-05-09T11:36:11.091Z,22.72
2024-05-09T11:38:37.618Z,23.38
2024-05-09T11:41:05.334Z,22.56
2024-05-09T11:43:32.183Z,21.40
2024-05-09T11:45:59.250Z,22.58
2024-05-09T11:48:26.540Z,23.46
2024-05-09T11:50:54.429Z,22.95
2024-05-09T11:53:20.955Z,21.89
2024-05-09T11:55:47.432Z,22.37
2024-05-09T11:58:17.494Z,23.68
2024-05-09T12:00:45.462Z,25.01
2024-05-09T12:03:12.320Z,23.85
2024-05-09T12:05:38.955Z,21.65
2024-05-09T12:08:06.210Z,23.51
2024-05-09T12:10:35.524Z,24.64
2024-05-09T12:13:05.370Z,24.40
2024-05-09T12:15:33.959Z,24.48
2024-05-09T12:18:03.395Z,24.39
2024-05-09T12:20:37.418Z,26.14
2024-05-09T12:23:06.766Z,26.73
2024-05-09T12:25:33.434Z,27.88
2024-05-09T12:28:00.590Z,27.23
2024-05-09T12:30:36.127Z,28.33
2024-05-09T12:33:08.090Z,28.00
2024-05-09T12:35:34.837Z,26.85
2024-05-09T12:38:01.479Z,26.89
2024-05-09T12:40:35.560Z,28.05
2024-05-09T12:43:08.072Z,27.71
2024-05-09T12:45:35.835Z,26.35
2024-05-09T12:48:03.241Z,26.83
2024-05-09T12:50:33.181Z,26.32
2024-05-09T12:53:02.179Z,25.94
2024-05-09T12:55:33.900Z,26.71
2024-05-09T12:58:07.691Z,27.81
2024-05-09T13:00:34.847Z,26.34
2024-05-09T13:03:01.674Z,26.66
2024-05-09T13:05:28.832Z,26.19
2024-05-09T13:07:56.445Z,26.16
2024-05-09T13:10:29.272Z,26.16
2024-05-09T13:12:59.581Z,27.33
2024-05-09T13:15:26.436Z,26.72
2024-05-09T13:17:53.133Z,30.19
2024-05-09T13:20:28.940Z,27.22
2024-05-09T13:23:02.021Z,28.14
2024-05-09T13:25:28.638Z,27.14
2024-05-09T13:27:55.893Z,28.07
2024-05-09T13:30:29.609Z,26.56
2024-05-09T13:33:05.613Z,27.08
2024-05-09T13:35:34.235Z,25.94
2024-05-09T13:38:02.236Z,26.79
2024-05-09T13:40:33.690Z,25.07
2024-05-09T13:43:02.743Z,27.34
2024-05-09T13:45:29.424Z,27.99
2024-05-09T13:47:56.518Z,27.58
2024-05-09T13:50:31.329Z,27.36
2024-05-09T13:53:02.299Z,25.89
2024-05-09T13:55:28.852Z,26.51
2024-05-09T13:57:55.816Z,24.99
2024-05-09T14:00:32.286Z,26.99
2024-05-09T14:03:09.470Z,26.18
2024-05-09T14:05:36.356Z,27.64
2024-05-09T14:08:03.556Z,26.91
2024-05-09T14:10:31.927Z,24.87
2024-05-09T14:12:59.703Z,25.23
2024-05-09T14:15:26.481Z,25.77
2024-05-09T14:17:53.464Z,26.86
2024-05-09T14:20:29.913Z,28.19
2024-05-09T14:22:58.890Z,27.34
2024-05-09T14:25:28.485Z,26.96
2024-05-09T14:27:55.982Z,27.49
2024-05-09T14:30:30.459Z,27.83
2024-05-09T14:33:03.194Z,27.66
2024-05-09T14:35:29.880Z,27.35
2024-05-09T14:37:56.469Z,25.07
2024-05-09T14:40:35.901Z,25.73
2024-05-09T14:43:09.246Z,27.97
2024-05-09T14:45:35.956Z,28.14
2024-05-09T14:48:03.557Z,27.80
2024-05-09T14:50:36.071Z,28.14
2024-05-09T14:53:06.510Z,27.32
2024-05-09T14:55:35.905Z,28.32
2024-05-09T14:58:03.447Z,28.74
2024-05-09T15:00:35.607Z,27.01
2024-05-09T15:03:03.764Z,27.07
2024-05-09T15:05:30.626Z,27.75
2024-05-09T15:07:58.260Z,27.72
2024-05-09T15:10:33.704Z,29.29
2024-05-09T15:13:03.376Z,29.54
2024-05-09T15:15:30.155Z,28.30
2024-05-09T15:17:56.948Z,30.09
2024-05-09T15:20:31.206Z,28.74
2024-05-09T15:23:02.415Z,28.06
2024-05-09T15:25:29.233Z,27.94
2024-05-09T15:27:56.085Z,29.27
2024-05-09T15:32:52.714Z,29.04
2024-05-09T15:35:19.739Z,28.04
2024-05-09T15:37:48.288Z,28.61
2024-05-09T15:40:18.472Z,29.70
2024-05-09T15:42:52.044Z,29.89
2024-05-09T15:45:18.574Z,30.81
2024-05-09T15:47:45.322Z,29.94
2024-05-09T15:50:20.067Z,30.03
2024-05-09T15:52:50.317Z,30.48
2024-05-09T15:55:17.348Z,30.49
2024-05-09T15:57:46.089Z,30.50
2024-05-09T16:00:24.390Z,30.74
2024-05-09T16:02:55.641Z,30.11
2024-05-09T16:05:22.670Z,30.66
2024-05-09T16:07:49.356Z,31.05
2024-05-09T16:10:22.732Z,31.07
2024-05-09T16:12:52.326Z,31.49
2024-05-09T16:15:18.900Z,31.92
2024-05-09T16:17:45.901Z,32.58
2024-05-09T16:20:18.120Z,32.23
2024-05-09T16:22:48.438Z,32.05
2024-05-09T16:25:15.008Z,32.14
2024-05-09T16:27:41.556Z,32.40
2024-05-09T16:30:11.988Z,32.36
2024-05-09T16:32:43.989Z,32.52
2024-05-09T16:35:10.967Z,32.42
2024-05-09T16:37:37.515Z,32.74
2024-05-09T16:40:07.553Z,32.80
2024-05-09T16:42:34.344Z,32.70
2024-05-09T16:45:00.908Z,32.31
2024-05-09T16:47:27.545Z,32.65
2024-05-09T16:49:54.113Z,32.36
2024-05-09T16:52:20.676Z,32.52
2024-05-09T16:54:47.252Z,32.41
2024-05-09T16:57:13.848Z,32.54
2024-05-09T16:59:40.357Z,32.30
2024-05-09T17:02:07.118Z,32.88
2024-05-09T17:04:33.818Z,32.57
2024-05-09T17:07:00.618Z,32.72
2024-05-09T17:09:27.182Z,32.81
2024-05-09T17:11:54.151Z,32.20
2024-05-09T17:14:20.668Z,33.00
2024-05-09T17:16:47.807Z,32.57
2024-05-09T17:19:14.576Z,32.45
2024-05-09T17:21:41.254Z,31.93
2024-05-09T17:24:07.773Z,32.74
2024-05-09T17:26:34.356Z,32.61
2024-05-09T17:29:01.734Z,32.87
2024-05-09T17:31:28.334Z,31.93
2024-05-09T17:33:55.327Z,32.69
2024-05-09T17:36:22.054Z,32.73
2024-05-09T17:38:48.596Z,32.13
2024-05-09T17:41:16.628Z,32.33
2024-05-09T17:43:43.131Z,32.75
2024-05-09T17:46:10.064Z,33.08
2024-05-09T17:48:36.831Z,32.91
2024-05-09T17:51:03.598Z,32.91
2024-05-09T17:53:30.101Z,33.62
2024-05-09T17:55:56.683Z,33.59
2024-05-09T17:58:23.408Z,33.50
2024-05-09T18:00:50.050Z,33.30
2024-05-09T18:03:16.739Z,33.58
2024-05-09T18:05:44.528Z,33.64
2024-05-09T18:08:11.818Z,34.02
2024-05-09T18:10:40.724Z,33.94
2024-05-09T18:13:09.242Z,34.31
2024-05-09T18:15:36.843Z,34.36
2024-05-09T18:18:04.428Z,34.32
2024-05-09T18:20:40.849Z,34.44
2024-05-09T18:23:11.430Z,34.83
2024-05-09T18:25:38.500Z,34.74
2024-05-09T18:28:06.480Z,34.96
2024-05-09T18:30:36.040Z,34.94
2024-05-09T18:33:05.907Z,35.17
2024-05-09T18:35:33.842Z,35.47
2024-05-09T18:38:00.578Z,35.68
2024-05-09T18:40:33.295Z,35.76
2024-05-09T18:43:05.165Z,35.96
2024-05-09T18:45:32.926Z,36.19
2024-05-09T18:47:59.735Z,36.64
2024-05-09T18:50:35.451Z,36.84
2024-05-09T18:53:10.339Z,37.06
2024-05-09T18:55:37.736Z,36.97
2024-05-09T18:58:05.627Z,37.40
2024-05-09T19:00:36.300Z,37.35
2024-05-09T19:03:11.085Z,37.64
2024-05-09T19:05:40.616Z,37.86
2024-05-09T19:08:08.333Z,38.14
2024-05-09T19:10:37.385Z,38.25
2024-05-09T19:13:09.220Z,38.72
2024-05-09T19:15:39.806Z,38.82
2024-05-09T19:18:07.267Z,38.85
2024-05-09T19:20:35.757Z,39.19
2024-05-09T19:23:04.646Z,39.49
2024-05-09T19:25:31.966Z,39.54
2024-05-09T19:27:58.613Z,39.81
2024-05-09T19:30:34.646Z,39.83
2024-05-09T19:33:06.726Z,40.12
2024-05-09T19:35:33.367Z,39.89
2024-05-09T19:38:00.068Z,40.36
2024-05-09T19:40:31.514Z,40.56
2024-05-09T19:43:01.179Z,40.60
2024-05-09T19:45:28.169Z,40.58
2024-05-09T19:47:55.402Z,40.88
2024-05-09T19:50:30.804Z,40.63
2024-05-09T19:53:03.747Z,41.09
2024-05-09T19:55:30.233Z,41.15
2024-05-09T19:57:57.175Z,41.60
2024-05-09T20:00:32.448Z,41.53
2024-05-09T20:03:02.562Z,41.55
2024-05-09T20:05:31.092Z,41.42
2024-05-09T20:07:58.011Z,41.14
2024-05-09T20:10:29.895Z,41.04
2024-05-09T20:13:00.049Z,40.76
2024-05-09T20:15:26.752Z,41.35
2024-05-09T20:17:53.772Z,41.06
2024-05-09T20:20:28.584Z,40.93
2024-05-09T20:23:03.006Z,40.63
2024-05-09T20:25:29.658Z,40.46
2024-05-09T20:27:56.190Z,40.63
2024-05-09T20:30:30.437Z,40.83
2024-05-09T20:32:59.400Z,40.86
2024-05-09T20:35:26.740Z,41.09
2024-05-09T20:37:53.493Z,41.33
2024-05-09T20:40:28.286Z,41.48
2024-05-09T20:42:58.782Z,40.97
2024-05-09T20:45:25.905Z,41.27
2024-05-09T20:47:52.592Z,41.44
2024-05-09T20:50:28.124Z,41.39
2024-05-09T20:53:02.588Z,41.48
2024-05-09T20:55:30.032Z,41.71
2024-05-09T20:57:56.970Z,41.89
2024-05-09T21:00:30.304Z,41.58
2024-05-09T21:03:05.843Z,42.08
2024-05-09T21:05:33.074Z,42.00
2024-05-09T21:07:59.815Z,42.27
2024-05-09T21:10:27.409Z,42.49
2024-05-09T21:12:57.924Z,42.10
2024-05-09T21:15:24.518Z,42.22
2024-05-09T21:17:51.075Z,42.28
2024-05-09T21:20:23.829Z,42.07
2024-05-09T21:22:55.834Z,42.60
2024-05-09T21:25:22.948Z,42.33
2024-05-09T21:27:49.561Z,43.09
2024-05-09T21:30:22.849Z,42.64
2024-05-09T21:32:58.411Z,42.49
2024-05-09T21:35:25.033Z,43.18
2024-05-09T21:37:51.599Z,42.97
2024-05-09T21:40:26.996Z,43.10
2024-05-09T21:43:00.110Z,43.31
2024-05-09T21:45:26.685Z,43.19
2024-05-09T21:47:53.479Z,43.27
2024-05-09T21:50:27.517Z,43.38
2024-05-09T21:52:58.944Z,43.82
2024-05-09T21:55:26.131Z,43.88
2024-05-09T21:57:52.719Z,43.96
2024-05-09T22:00:28.802Z,43.94
2024-05-09T22:03:02.298Z,44.18
2024-05-09T22:05:29.181Z,44.14
2024-05-09T22:07:55.989Z,44.23
2024-05-09T22:10:26.857Z,44.59
2024-05-09T22:13:00.155Z,44.37
2024-05-09T22:15:27.085Z,44.53
2024-05-09T22:17:57.384Z,44.55
2024-05-09T22:20:33.514Z,44.89
2024-05-09T22:23:04.218Z,44.86
2024-05-09T22:25:31.945Z,44.97
2024-05-09T22:27:59.189Z,45.00
2024-05-09T22:30:34.234Z,45.52
2024-05-09T22:33:05.204Z,45.54
2024-05-09T22:35:31.941Z,45.94
2024-05-09T22:37:58.493Z,46.17
2024-05-09T22:40:37.751Z,46.30
2024-05-09T22:43:12.330Z,46.43
2024-05-09T22:45:39.152Z,46.64
2024-05-09T22:48:06.251Z,46.64
2024-05-09T22:50:33.842Z,46.99
2024-05-09T22:53:00.899Z,46.85
2024-05-09T22:55:27.537Z,47.28
2024-05-09T22:57:54.083Z,47.36
2024-05-09T23:00:29.219Z,47.64
2024-05-09T23:03:02.934Z,47.57
2024-05-09T23:05:30.681Z,47.55
2024-05-09T23:07:57.264Z,47.82
2024-05-09T23:10:31.760Z,48.13
2024-05-09T23:13:03.107Z,48.23
2024-05-09T23:15:29.927Z,48.15
2024-05-09T23:17:57.335Z,48.12
2024-05-09T23:20:33.438Z,48.68
2024-05-09T23:23:05.192Z,48.22
2024-05-09T23:25:31.763Z,48.98
2024-05-09T23:27:58.575Z,49.04
2024-05-09T23:30:34.231Z,48.87
2024-05-09T23:33:05.780Z,49.35
2024-05-09T23:35:32.496Z,49.46
2024-05-09T23:37:59.623Z,49.27
2024-05-09T23:40:36.992Z,49.59
2024-05-09T23:43:06.974Z,49.56
2024-05-09T23:45:33.820Z,49.73
2024-05-09T23:48:01.118Z,49.97
2024-05-09T23:50:34.378Z,50.50
2024-05-09T23:53:04.240Z,50.51
2024-05-09T23:55:31.819Z,50.56
2024-05-09T23:57:58.755Z,50.70
